sensor_id;sensor_type;location;lat;lon;timestamp;pressure;altitude;pressure_sealevel;temperature;humidity
61359;BME280;47228;46.762;23.598;2023-06-26T00:01:55;97087.08;;;16.81;93.21
61359;BME280;47228;46.762;23.598;2023-06-26T00:04:23;97087.84;;;16.79;93.19
61359;BME280;47228;46.762;23.598;2023-06-26T00:06:51;97086.44;;;16.76;93.31
61359;BME280;47228;46.762;23.598;2023-06-26T00:09:19;97085.09;;;16.76;93.58
61359;BME280;47228;46.762;23.598;2023-06-26T00:11:47;97085.40;;;16.75;93.32
61359;BME280;47228;46.762;23.598;2023-06-26T00:14:15;97084.69;;;16.74;93.26
61359;BME280;47228;46.762;23.598;2023-06-26T00:16:43;97087.52;;;16.73;93.16
61359;BME280;47228;46.762;23.598;2023-06-26T00:19:11;97086.14;;;16.72;92.92
61359;BME280;47228;46.762;23.598;2023-06-26T00:21:38;97087.31;;;16.70;92.87
61359;BME280;47228;46.762;23.598;2023-06-26T00:24:07;97085.31;;;16.68;93.16
61359;BME280;47228;46.762;23.598;2023-06-26T00:26:34;97085.79;;;16.67;92.80
61359;BME280;47228;46.762;23.598;2023-06-26T00:29:02;97087.30;;;16.63;92.71
61359;BME280;47228;46.762;23.598;2023-06-26T00:31:31;97086.66;;;16.60;92.86
61359;BME280;47228;46.762;23.598;2023-06-26T00:33:59;97085.25;;;16.58;92.75
61359;BME280;47228;46.762;23.598;2023-06-26T00:36:27;97081.95;;;16.57;92.65
61359;BME280;47228;46.762;23.598;2023-06-26T00:38:55;97082.14;;;16.54;92.32
61359;BME280;47228;46.762;23.598;2023-06-26T00:41:23;97086.70;;;16.50;92.22
61359;BME280;47228;46.762;23.598;2023-06-26T00:43:51;97085.15;;;16.47;92.30
61359;BME280;47228;46.762;23.598;2023-06-26T00:46:19;97082.54;;;16.44;92.62
61359;BME280;47228;46.762;23.598;2023-06-26T00:48:48;97080.21;;;16.42;92.55
61359;BME280;47228;46.762;23.598;2023-06-26T00:51:16;97076.26;;;16.38;92.59
61359;BME280;47228;46.762;23.598;2023-06-26T00:53:44;97075.88;;;16.38;92.86
61359;BME280;47228;46.762;23.598;2023-06-26T00:56:12;97076.92;;;16.36;92.52
61359;BME280;47228;46.762;23.598;2023-06-26T00:58:40;97078.41;;;16.35;92.61
61359;BME280;47228;46.762;23.598;2023-06-26T01:01:08;97080.11;;;16.34;92.62
61359;BME280;47228;46.762;23.598;2023-06-26T01:03:36;97078.54;;;16.33;92.48
61359;BME280;47228;46.762;23.598;2023-06-26T01:06:11;97078.04;;;16.32;92.67
61359;BME280;47228;46.762;23.598;2023-06-26T01:08:41;97079.73;;;16.30;92.51
61359;BME280;47228;46.762;23.598;2023-06-26T01:11:11;97078.05;;;16.28;92.30
61359;BME280;47228;46.762;23.598;2023-06-26T01:13:41;97076.36;;;16.26;92.30
61359;BME280;47228;46.762;23.598;2023-06-26T01:16:10;97077.79;;;16.24;92.34
61359;BME280;47228;46.762;23.598;2023-06-26T01:18:39;97076.84;;;16.22;92.33
61359;BME280;47228;46.762;23.598;2023-06-26T01:21:13;97077.57;;;16.20;92.04
61359;BME280;47228;46.762;23.598;2023-06-26T01:26:38;97077.69;;;16.14;92.27
61359;BME280;47228;46.762;23.598;2023-06-26T01:29:09;97079.23;;;16.13;92.76
61359;BME280;47228;46.762;23.598;2023-06-26T01:31:39;97080.41;;;16.13;92.41
61359;BME280;47228;46.762;23.598;2023-06-26T01:34:07;97077.47;;;16.12;92.56
61359;BME280;47228;46.762;23.598;2023-06-26T01:36:35;97077.63;;;16.13;92.47
61359;BME280;47228;46.762;23.598;2023-06-26T01:39:05;97073.65;;;16.12;92.41
61359;BME280;47228;46.762;23.598;2023-06-26T01:41:33;97071.28;;;16.11;92.09
61359;BME280;47228;46.762;23.598;2023-06-26T01:44:11;97074.01;;;16.11;92.36
61359;BME280;47228;46.762;23.598;2023-06-26T01:47:04;97072.35;;;16.11;92.62
61359;BME280;47228;46.762;23.598;2023-06-26T01:49:47;97077.60;;;16.12;92.83
61359;BME280;47228;46.762;23.598;2023-06-26T01:52:28;97074.17;;;16.12;92.35
61359;BME280;47228;46.762;23.598;2023-06-26T01:55:15;97073.45;;;16.13;92.35
61359;BME280;47228;46.762;23.598;2023-06-26T01:57:49;97067.77;;;16.13;92.25
61359;BME280;47228;46.762;23.598;2023-06-26T02:00:19;97069.54;;;16.13;92.14
61359;BME280;47228;46.762;23.598;2023-06-26T02:02:49;97070.58;;;16.14;92.39
61359;BME280;47228;46.762;23.598;2023-06-26T02:05:17;97068.66;;;16.15;92.55
61359;BME280;47228;46.762;23.598;2023-06-26T02:07:44;97068.23;;;16.15;92.66
61359;BME280;47228;46.762;23.598;2023-06-26T02:10:12;97070.11;;;16.16;92.36
61359;BME280;47228;46.762;23.598;2023-06-26T02:12:41;97065.52;;;16.17;92.50
61359;BME280;47228;46.762;23.598;2023-06-26T02:15:09;97067.55;;;16.17;92.77
61359;BME280;47228;46.762;23.598;2023-06-26T02:17:37;97069.98;;;16.18;92.90
61359;BME280;47228;46.762;23.598;2023-06-26T02:20:05;97070.13;;;16.21;92.88
61359;BME280;47228;46.762;23.598;2023-06-26T02:22:34;97071.27;;;16.22;92.74
61359;BME280;47228;46.762;23.598;2023-06-26T02:25:02;97072.02;;;16.22;92.36
61359;BME280;47228;46.762;23.598;2023-06-26T02:27:30;97073.83;;;16.21;91.94
61359;BME280;47228;46.762;23.598;2023-06-26T02:29:58;97075.48;;;16.20;91.83
61359;BME280;47228;46.762;23.598;2023-06-26T02:32:25;97077.48;;;16.18;91.84
61359;BME280;47228;46.762;23.598;2023-06-26T02:34:53;97076.13;;;16.18;92.13
61359;BME280;47228;46.762;23.598;2023-06-26T02:37:21;97074.63;;;16.17;91.96
61359;BME280;47228;46.762;23.598;2023-06-26T02:39:49;97074.65;;;16.14;91.69
61359;BME280;47228;46.762;23.598;2023-06-26T02:42:17;97075.61;;;16.13;91.53
61359;BME280;47228;46.762;23.598;2023-06-26T02:44:45;97076.42;;;16.11;91.35
61359;BME280;47228;46.762;23.598;2023-06-26T02:47:13;97073.61;;;16.10;91.51
61359;BME280;47228;46.762;23.598;2023-06-26T02:49:42;97073.60;;;16.09;91.66
61359;BME280;47228;46.762;23.598;2023-06-26T02:52:09;97071.60;;;16.07;91.54
61359;BME280;47228;46.762;23.598;2023-06-26T02:54:37;97071.77;;;16.04;91.47
61359;BME280;47228;46.762;23.598;2023-06-26T02:57:05;97073.10;;;16.04;91.45
61359;BME280;47228;46.762;23.598;2023-06-26T02:59:34;97073.52;;;16.03;91.36
61359;BME280;47228;46.762;23.598;2023-06-26T03:02:02;97073.61;;;16.01;91.23
61359;BME280;47228;46.762;23.598;2023-06-26T03:04:30;97073.58;;;16.00;91.42
61359;BME280;47228;46.762;23.598;2023-06-26T03:06:58;97073.33;;;16.00;91.57
61359;BME280;47228;46.762;23.598;2023-06-26T03:09:26;97073.95;;;16.02;91.53
61359;BME280;47228;46.762;23.598;2023-06-26T03:11:54;97075.50;;;16.04;91.62
61359;BME280;47228;46.762;23.598;2023-06-26T03:14:23;97077.03;;;16.05;91.80
61359;BME280;47228;46.762;23.598;2023-06-26T03:16:51;97075.56;;;16.08;91.83
61359;BME280;47228;46.762;23.598;2023-06-26T03:19:20;97079.40;;;16.09;91.71
61359;BME280;47228;46.762;23.598;2023-06-26T03:21:48;97078.66;;;16.11;91.37
61359;BME280;47228;46.762;23.598;2023-06-26T03:24:16;97076.97;;;16.11;91.20
61359;BME280;47228;46.762;23.598;2023-06-26T03:26:44;97080.23;;;16.12;91.32
61359;BME280;47228;46.762;23.598;2023-06-26T03:29:12;97073.80;;;16.12;91.22
61359;BME280;47228;46.762;23.598;2023-06-26T03:31:40;97072.52;;;16.11;91.20
61359;BME280;47228;46.762;23.598;2023-06-26T03:34:08;97074.33;;;16.11;91.42
61359;BME280;47228;46.762;23.598;2023-06-26T03:36:36;97072.25;;;16.11;91.59
61359;BME280;47228;46.762;23.598;2023-06-26T03:39:04;97069.44;;;16.13;91.61
61359;BME280;47228;46.762;23.598;2023-06-26T03:41:32;97071.23;;;16.15;91.33
61359;BME280;47228;46.762;23.598;2023-06-26T03:44:00;97070.31;;;16.15;91.35
61359;BME280;47228;46.762;23.598;2023-06-26T03:46:28;97072.39;;;16.14;91.31
61359;BME280;47228;46.762;23.598;2023-06-26T03:48:56;97075.81;;;16.13;91.41
61359;BME280;47228;46.762;23.598;2023-06-26T03:51:24;97074.30;;;16.12;91.41
61359;BME280;47228;46.762;23.598;2023-06-26T03:53:52;97076.32;;;16.11;91.53
61359;BME280;47228;46.762;23.598;2023-06-26T03:56:20;97077.40;;;16.08;91.40
61359;BME280;47228;46.762;23.598;2023-06-26T03:58:48;97082.21;;;16.07;91.59
61359;BME280;47228;46.762;23.598;2023-06-26T04:01:16;97087.79;;;16.07;91.86
61359;BME280;47228;46.762;23.598;2023-06-26T04:03:44;97085.77;;;16.10;92.25
61359;BME280;47228;46.762;23.598;2023-06-26T04:06:12;97091.71;;;16.13;92.55
61359;BME280;47228;46.762;23.598;2023-06-26T04:08:40;97093.77;;;16.14;92.34
61359;BME280;47228;46.762;23.598;2023-06-26T04:11:08;97094.64;;;16.16;92.05
61359;BME280;47228;46.762;23.598;2023-06-26T04:13:36;97094.60;;;16.16;91.93
61359;BME280;47228;46.762;23.598;2023-06-26T04:16:04;97096.78;;;16.18;91.83
61359;BME280;47228;46.762;23.598;2023-06-26T04:18:32;97100.30;;;16.21;92.15
61359;BME280;47228;46.762;23.598;2023-06-26T04:21:11;97102.91;;;16.23;91.73
61359;BME280;47228;46.762;23.598;2023-06-26T04:23:40;97105.66;;;16.27;91.56
61359;BME280;47228;46.762;23.598;2023-06-26T04:26:08;97105.70;;;16.33;91.62
61359;BME280;47228;46.762;23.598;2023-06-26T04:28:36;97108.14;;;16.38;91.13
61359;BME280;47228;46.762;23.598;2023-06-26T04:31:04;97105.00;;;16.43;90.94
61359;BME280;47228;46.762;23.598;2023-06-26T04:33:32;97105.45;;;16.48;90.74
61359;BME280;47228;46.762;23.598;2023-06-26T04:36:00;97102.39;;;16.53;90.68
61359;BME280;47228;46.762;23.598;2023-06-26T04:38:34;97102.25;;;16.55;89.81
61359;BME280;47228;46.762;23.598;2023-06-26T04:41:02;97102.17;;;16.57;89.43
61359;BME280;47228;46.762;23.598;2023-06-26T04:43:30;97105.52;;;16.60;89.15
61359;BME280;47228;46.762;23.598;2023-06-26T04:45:58;97105.96;;;16.60;88.29
61359;BME280;47228;46.762;23.598;2023-06-26T04:48:26;97109.63;;;16.62;88.43
61359;BME280;47228;46.762;23.598;2023-06-26T04:50:58;97110.73;;;16.63;88.39
61359;BME280;47228;46.762;23.598;2023-06-26T04:53:26;97111.58;;;16.67;88.88
61359;BME280;47228;46.762;23.598;2023-06-26T04:55:55;97107.63;;;16.73;89.11
61359;BME280;47228;46.762;23.598;2023-06-26T04:58:24;97107.53;;;16.78;88.97
61359;BME280;47228;46.762;23.598;2023-06-26T05:00:52;97109.83;;;16.86;88.86
61359;BME280;47228;46.762;23.598;2023-06-26T05:03:20;97108.44;;;16.92;88.73
61359;BME280;47228;46.762;23.598;2023-06-26T05:05:48;97107.71;;;16.99;88.38
61359;BME280;47228;46.762;23.598;2023-06-26T05:10:45;97103.52;;;17.10;87.19
61359;BME280;47228;46.762;23.598;2023-06-26T05:13:13;97103.48;;;17.16;87.43
61359;BME280;47228;46.762;23.598;2023-06-26T05:15:46;97109.87;;;17.22;86.63
61359;BME280;47228;46.762;23.598;2023-06-26T05:18:14;97104.91;;;17.26;86.49
61359;BME280;47228;46.762;23.598;2023-06-26T05:20:43;97105.02;;;17.32;85.81
61359;BME280;47228;46.762;23.598;2023-06-26T05:23:11;97106.85;;;17.36;84.43
61359;BME280;47228;46.762;23.598;2023-06-26T05:25:40;97108.11;;;17.39;84.52
61359;BME280;47228;46.762;23.598;2023-06-26T05:28:09;97110.25;;;17.44;84.70
61359;BME280;47228;46.762;23.598;2023-06-26T05:30:40;97110.09;;;17.51;85.01
61359;BME280;47228;46.762;23.598;2023-06-26T05:33:11;97113.68;;;17.56;84.57
61359;BME280;47228;46.762;23.598;2023-06-26T05:35:40;97112.71;;;17.62;84.25
61359;BME280;47228;46.762;23.598;2023-06-26T05:38:09;97109.60;;;17.68;83.85
61359;BME280;47228;46.762;23.598;2023-06-26T05:40:37;97107.06;;;17.73;82.99
61359;BME280;47228;46.762;23.598;2023-06-26T05:43:06;97102.22;;;17.79;82.90
61359;BME280;47228;46.762;23.598;2023-06-26T05:45:36;97104.84;;;17.84;82.38
61359;BME280;47228;46.762;23.598;2023-06-26T05:48:04;97106.28;;;17.89;82.48
61359;BME280;47228;46.762;23.598;2023-06-26T05:50:33;97106.09;;;17.94;81.97
61359;BME280;47228;46.762;23.598;2023-06-26T05:53:02;97102.54;;;18.00;81.88
61359;BME280;47228;46.762;23.598;2023-06-26T05:55:30;97096.61;;;18.05;81.55
61359;BME280;47228;46.762;23.598;2023-06-26T05:57:59;97098.40;;;18.11;80.87
61359;BME280;47228;46.762;23.598;2023-06-26T06:00:30;97099.52;;;18.17;81.57
61359;BME280;47228;46.762;23.598;2023-06-26T06:02:58;97097.30;;;18.24;81.72
61359;BME280;47228;46.762;23.598;2023-06-26T06:05:26;97099.63;;;18.28;80.63
61359;BME280;47228;46.762;23.598;2023-06-26T06:07:57;97098.35;;;18.30;80.30
61359;BME280;47228;46.762;23.598;2023-06-26T06:10:24;97100.91;;;18.36;80.22
61359;BME280;47228;46.762;23.598;2023-06-26T06:12:53;97100.59;;;18.44;80.01
61359;BME280;47228;46.762;23.598;2023-06-26T06:15:22;97098.90;;;18.52;78.59
61359;BME280;47228;46.762;23.598;2023-06-26T06:17:50;97097.11;;;18.59;78.48
61359;BME280;47228;46.762;23.598;2023-06-26T06:20:18;97100.80;;;18.66;78.19
61359;BME280;47228;46.762;23.598;2023-06-26T06:22:47;97103.51;;;18.71;77.52
61359;BME280;47228;46.762;23.598;2023-06-26T06:25:16;97099.81;;;18.76;76.85
61359;BME280;47228;46.762;23.598;2023-06-26T06:27:44;97100.91;;;18.80;77.14
61359;BME280;47228;46.762;23.598;2023-06-26T06:30:12;97100.27;;;18.86;77.53
61359;BME280;47228;46.762;23.598;2023-06-26T06:32:40;97099.02;;;18.96;77.25
61359;BME280;47228;46.762;23.598;2023-06-26T06:35:09;97099.44;;;19.04;76.50
61359;BME280;47228;46.762;23.598;2023-06-26T06:37:38;97099.16;;;19.12;76.59
61359;BME280;47228;46.762;23.598;2023-06-26T06:40:09;97094.87;;;19.22;77.21
61359;BME280;47228;46.762;23.598;2023-06-26T06:42:38;97093.59;;;19.28;76.84
61359;BME280;47228;46.762;23.598;2023-06-26T06:45:06;97093.06;;;19.34;77.27
61359;BME280;47228;46.762;23.598;2023-06-26T06:47:34;97093.50;;;19.41;76.04
61359;BME280;47228;46.762;23.598;2023-06-26T06:50:02;97093.94;;;19.48;76.07
61359;BME280;47228;46.762;23.598;2023-06-26T06:52:37;97089.79;;;19.58;76.07
61359;BME280;47228;46.762;23.598;2023-06-26T06:55:07;97090.40;;;19.68;75.31
61359;BME280;47228;46.762;23.598;2023-06-26T06:57:38;97088.45;;;19.78;75.04
61359;BME280;47228;46.762;23.598;2023-06-26T07:00:11;97089.31;;;19.87;74.12
61359;BME280;47228;46.762;23.598;2023-06-26T07:02:43;97091.09;;;19.96;73.99
61359;BME280;47228;46.762;23.598;2023-06-26T07:05:12;97089.01;;;20.05;73.59
61359;BME280;47228;46.762;23.598;2023-06-26T07:07:41;97088.57;;;20.13;73.01
61359;BME280;47228;46.762;23.598;2023-06-26T07:10:11;97091.80;;;20.20;72.49
61359;BME280;47228;46.762;23.598;2023-06-26T07:12:39;97091.67;;;20.28;70.88
61359;BME280;47228;46.762;23.598;2023-06-26T07:15:08;97095.15;;;20.36;70.24
61359;BME280;47228;46.762;23.598;2023-06-26T07:17:36;97095.36;;;20.42;70.33
61359;BME280;47228;46.762;23.598;2023-06-26T07:20:06;97097.17;;;20.47;70.30
61359;BME280;47228;46.762;23.598;2023-06-26T07:22:37;97098.95;;;20.49;69.52
61359;BME280;47228;46.762;23.598;2023-06-26T07:25:05;97098.89;;;20.51;69.28
61359;BME280;47228;46.762;23.598;2023-06-26T07:27:38;97100.01;;;20.55;68.36
61359;BME280;47228;46.762;23.598;2023-06-26T07:30:07;97101.39;;;20.60;66.70
61359;BME280;47228;46.762;23.598;2023-06-26T07:32:39;97101.09;;;20.65;66.82
61359;BME280;47228;46.762;23.598;2023-06-26T07:35:08;97095.24;;;20.73;66.87
61359;BME280;47228;46.762;23.598;2023-06-26T07:37:36;97092.62;;;20.82;66.68
61359;BME280;47228;46.762;23.598;2023-06-26T07:40:05;97095.52;;;20.91;66.83
61359;BME280;47228;46.762;23.598;2023-06-26T07:42:33;97095.32;;;21.01;66.04
61359;BME280;47228;46.762;23.598;2023-06-26T07:45:01;97095.80;;;21.10;64.89
61359;BME280;47228;46.762;23.598;2023-06-26T07:47:29;97101.10;;;21.19;62.32
61359;BME280;47228;46.762;23.598;2023-06-26T07:49:57;97102.95;;;21.25;59.43
61359;BME280;47228;46.762;23.598;2023-06-26T07:52:25;97101.00;;;21.29;57.15
61359;BME280;47228;46.762;23.598;2023-06-26T07:54:53;97103.23;;;21.35;57.91
61359;BME280;47228;46.762;23.598;2023-06-26T07:57:21;97102.95;;;21.42;56.98
61359;BME280;47228;46.762;23.598;2023-06-26T07:59:50;97099.62;;;21.50;57.12
61359;BME280;47228;46.762;23.598;2023-06-26T08:02:18;97094.16;;;21.57;58.60
61359;BME280;47228;46.762;23.598;2023-06-26T08:04:45;97096.48;;;21.64;58.11
61359;BME280;47228;46.762;23.598;2023-06-26T08:07:14;97097.98;;;21.74;58.86
61359;BME280;47228;46.762;23.598;2023-06-26T08:09:42;97098.41;;;21.85;59.16
61359;BME280;47228;46.762;23.598;2023-06-26T08:12:10;97095.60;;;21.97;57.67
61359;BME280;47228;46.762;23.598;2023-06-26T08:14:40;97094.89;;;22.04;54.37
61359;BME280;47228;46.762;23.598;2023-06-26T08:17:08;97098.98;;;22.11;55.14
61359;BME280;47228;46.762;23.598;2023-06-26T08:19:35;97097.61;;;22.19;55.57
61359;BME280;47228;46.762;23.598;2023-06-26T08:22:05;97100.11;;;22.28;54.53
61359;BME280;47228;46.762;23.598;2023-06-26T08:24:33;97099.81;;;22.37;52.56
61359;BME280;47228;46.762;23.598;2023-06-26T08:27:01;97098.27;;;22.43;51.10
61359;BME280;47228;46.762;23.598;2023-06-26T08:29:29;97095.98;;;22.50;52.11
61359;BME280;47228;46.762;23.598;2023-06-26T08:31:57;97099.31;;;22.60;52.33
61359;BME280;47228;46.762;23.598;2023-06-26T08:34:25;97097.63;;;22.70;52.46
61359;BME280;47228;46.762;23.598;2023-06-26T08:36:53;97099.19;;;22.83;52.95
61359;BME280;47228;46.762;23.598;2023-06-26T08:39:21;97097.70;;;22.95;52.34
61359;BME280;47228;46.762;23.598;2023-06-26T08:41:49;97100.36;;;23.03;51.18
61359;BME280;47228;46.762;23.598;2023-06-26T08:44:17;97101.94;;;23.07;52.24
61359;BME280;47228;46.762;23.598;2023-06-26T08:46:45;97098.66;;;23.16;52.60
61359;BME280;47228;46.762;23.598;2023-06-26T08:49:30;97097.97;;;23.27;53.30
61359;BME280;47228;46.762;23.598;2023-06-26T08:52:11;97099.77;;;23.34;51.41
61359;BME280;47228;46.762;23.598;2023-06-26T08:54:45;97100.88;;;23.22;49.63
61359;BME280;47228;46.762;23.598;2023-06-26T08:57:18;97098.95;;;23.03;49.40
61359;BME280;47228;46.762;23.598;2023-06-26T08:59:47;97102.98;;;22.94;50.83
61359;BME280;47228;46.762;23.598;2023-06-26T09:02:16;97103.79;;;22.98;50.58
61359;BME280;47228;46.762;23.598;2023-06-26T09:04:44;97101.11;;;22.99;49.30
61359;BME280;47228;46.762;23.598;2023-06-26T09:07:12;97101.75;;;23.01;49.71
61359;BME280;47228;46.762;23.598;2023-06-26T09:09:40;97097.20;;;23.05;49.50
61359;BME280;47228;46.762;23.598;2023-06-26T09:12:08;97099.51;;;23.11;50.07
61359;BME280;47228;46.762;23.598;2023-06-26T09:14:37;97097.42;;;23.12;49.41
61359;BME280;47228;46.762;23.598;2023-06-26T09:17:05;97099.50;;;23.19;50.70
61359;BME280;47228;46.762;23.598;2023-06-26T09:19:37;97096.33;;;23.35;49.83
61359;BME280;47228;46.762;23.598;2023-06-26T09:22:11;97096.77;;;23.45;49.12
61359;BME280;47228;46.762;23.598;2023-06-26T09:24:43;97100.44;;;23.53;48.89
61359;BME280;47228;46.762;23.598;2023-06-26T09:27:11;97102.30;;;23.66;49.62
61359;BME280;47228;46.762;23.598;2023-06-26T09:29:40;97100.06;;;23.71;48.59
61359;BME280;47228;46.762;23.598;2023-06-26T09:32:08;97101.63;;;23.68;46.33
61359;BME280;47228;46.762;23.598;2023-06-26T09:34:41;97102.59;;;23.66;46.35
61359;BME280;47228;46.762;23.598;2023-06-26T09:37:12;97101.91;;;23.74;47.70
61359;BME280;47228;46.762;23.598;2023-06-26T09:39:41;97098.98;;;23.91;48.99
61359;BME280;47228;46.762;23.598;2023-06-26T09:42:09;97094.57;;;24.05;47.45
61359;BME280;47228;46.762;23.598;2023-06-26T09:44:43;97098.82;;;24.06;48.03
61359;BME280;47228;46.762;23.598;2023-06-26T09:47:11;97104.98;;;23.98;46.67
61359;BME280;47228;46.762;23.598;2023-06-26T09:49:43;97103.89;;;23.96;47.17
61359;BME280;47228;46.762;23.598;2023-06-26T09:52:15;97099.52;;;24.07;46.97
61359;BME280;47228;46.762;23.598;2023-06-26T09:54:47;97096.96;;;24.12;44.76
61359;BME280;47228;46.762;23.598;2023-06-26T09:57:18;97096.52;;;24.16;44.26
61359;BME280;47228;46.762;23.598;2023-06-26T09:59:47;97094.67;;;24.22;44.04
61359;BME280;47228;46.762;23.598;2023-06-26T10:02:15;97094.10;;;24.30;44.77
61359;BME280;47228;46.762;23.598;2023-06-26T10:04:43;97096.42;;;24.43;44.26
61359;BME280;47228;46.762;23.598;2023-06-26T10:07:12;97096.39;;;24.56;44.46
61359;BME280;47228;46.762;23.598;2023-06-26T10:09:42;97093.38;;;24.76;44.29
61359;BME280;47228;46.762;23.598;2023-06-26T10:12:30;97093.23;;;24.90;44.73
61359;BME280;47228;46.762;23.598;2023-06-26T10:14:58;97086.79;;;25.07;45.08
61359;BME280;47228;46.762;23.598;2023-06-26T10:17:31;97084.44;;;25.28;45.47
61359;BME280;47228;46.762;23.598;2023-06-26T10:20:03;97083.19;;;25.44;42.65
61359;BME280;47228;46.762;23.598;2023-06-26T10:22:36;97078.09;;;25.53;42.91
61359;BME280;47228;46.762;23.598;2023-06-26T10:25:06;97077.86;;;25.73;42.97
61359;BME280;47228;46.762;23.598;2023-06-26T10:27:42;97084.13;;;25.91;40.99
61359;BME280;47228;46.762;23.598;2023-06-26T10:30:16;97081.02;;;26.02;39.93
61359;BME280;47228;46.762;23.598;2023-06-26T10:32:46;97082.46;;;26.11;39.67
61359;BME280;47228;46.762;23.598;2023-06-26T10:35:14;97080.60;;;26.15;38.64
61359;BME280;47228;46.762;23.598;2023-06-26T10:37:50;97082.63;;;26.17;38.20
61359;BME280;47228;46.762;23.598;2023-06-26T10:40:45;97086.32;;;26.19;38.57
61359;BME280;47228;46.762;23.598;2023-06-26T10:43:14;97083.16;;;26.24;38.75
61359;BME280;47228;46.762;23.598;2023-06-26T10:45:47;97078.55;;;26.30;39.45
61359;BME280;47228;46.762;23.598;2023-06-26T10:48:21;97080.02;;;26.46;40.11
61359;BME280;47228;46.762;23.598;2023-06-26T10:50:50;97081.67;;;26.60;37.95
61359;BME280;47228;46.762;23.598;2023-06-26T10:56:04;97085.05;;;26.62;37.51
61359;BME280;47228;46.762;23.598;2023-06-26T11:03:39;97073.66;;;26.87;38.52
61359;BME280;47228;46.762;23.598;2023-06-26T11:06:17;97077.00;;;27.02;38.25
61359;BME280;47228;46.762;23.598;2023-06-26T11:09:15;97079.27;;;27.19;38.54
61359;BME280;47228;46.762;23.598;2023-06-26T11:14:41;97076.27;;;27.44;38.03
61359;BME280;47228;46.762;23.598;2023-06-26T11:17:09;97073.48;;;27.46;37.58
61359;BME280;47228;46.762;23.598;2023-06-26T11:19:42;97076.38;;;27.42;37.77
61359;BME280;47228;46.762;23.598;2023-06-26T11:22:12;97079.19;;;27.31;37.17
61359;BME280;47228;46.762;23.598;2023-06-26T11:24:41;97080.92;;;27.23;37.25
61359;BME280;47228;46.762;23.598;2023-06-26T11:27:10;97081.20;;;27.19;37.10
61359;BME280;47228;46.762;23.598;2023-06-26T11:29:47;97077.65;;;27.19;38.63
61359;BME280;47228;46.762;23.598;2023-06-26T11:32:17;97071.84;;;27.18;37.26
61359;BME280;47228;46.762;23.598;2023-06-26T11:34:47;97071.13;;;27.15;38.50
61359;BME280;47228;46.762;23.598;2023-06-26T11:37:21;97070.54;;;27.20;38.88
61359;BME280;47228;46.762;23.598;2023-06-26T11:39:51;97070.56;;;27.30;38.24
61359;BME280;47228;46.762;23.598;2023-06-26T11:42:20;97073.48;;;27.38;37.71
61359;BME280;47228;46.762;23.598;2023-06-26T11:44:48;97069.38;;;27.42;36.56
61359;BME280;47228;46.762;23.598;2023-06-26T11:47:20;97074.63;;;27.46;36.78
61359;BME280;47228;46.762;23.598;2023-06-26T11:49:49;97066.30;;;27.41;36.11
61359;BME280;47228;46.762;23.598;2023-06-26T11:52:17;97062.97;;;27.41;36.81
61359;BME280;47228;46.762;23.598;2023-06-26T11:54:45;97060.21;;;27.44;36.37
61359;BME280;47228;46.762;23.598;2023-06-26T11:57:14;97055.42;;;27.45;36.24
61359;BME280;47228;46.762;23.598;2023-06-26T11:59:43;97057.17;;;27.48;37.02
61359;BME280;47228;46.762;23.598;2023-06-26T12:02:13;97058.30;;;27.50;36.34
61359;BME280;47228;46.762;23.598;2023-06-26T12:04:43;97054.39;;;27.43;36.07
61359;BME280;47228;46.762;23.598;2023-06-26T12:07:12;97050.04;;;27.29;36.48
61359;BME280;47228;46.762;23.598;2023-06-26T12:09:42;97048.69;;;27.16;36.95
61359;BME280;47228;46.762;23.598;2023-06-26T12:12:14;97046.38;;;27.04;36.84
61359;BME280;47228;46.762;23.598;2023-06-26T12:14:43;97043.64;;;26.89;36.83
61359;BME280;47228;46.762;23.598;2023-06-26T12:17:12;97044.41;;;26.72;37.20
61359;BME280;47228;46.762;23.598;2023-06-26T12:19:46;97043.70;;;26.55;37.32
61359;BME280;47228;46.762;23.598;2023-06-26T12:22:18;97039.80;;;26.38;38.90
61359;BME280;47228;46.762;23.598;2023-06-26T12:24:48;97039.93;;;26.20;39.29
61359;BME280;47228;46.762;23.598;2023-06-26T12:27:18;97040.64;;;26.00;39.96
61359;BME280;47228;46.762;23.598;2023-06-26T12:29:52;97042.17;;;25.87;40.74
61359;BME280;47228;46.762;23.598;2023-06-26T12:32:25;97041.88;;;25.83;40.77
61359;BME280;47228;46.762;23.598;2023-06-26T12:34:57;97035.06;;;25.84;40.73
61359;BME280;47228;46.762;23.598;2023-06-26T12:37:25;97033.18;;;25.85;41.06
61359;BME280;47228;46.762;23.598;2023-06-26T12:39:57;97036.36;;;25.86;41.01
61359;BME280;47228;46.762;23.598;2023-06-26T12:42:27;97037.27;;;25.85;40.49
61359;BME280;47228;46.762;23.598;2023-06-26T12:44:56;97037.19;;;25.81;40.24
61359;BME280;47228;46.762;23.598;2023-06-26T12:47:28;97032.96;;;25.76;40.84
61359;BME280;47228;46.762;23.598;2023-06-26T12:49:58;97027.08;;;25.70;40.06
61359;BME280;47228;46.762;23.598;2023-06-26T12:52:31;97026.21;;;25.63;40.09
61359;BME280;47228;46.762;23.598;2023-06-26T12:54:59;97022.83;;;25.60;39.86
61359;BME280;47228;46.762;23.598;2023-06-26T12:57:28;97024.58;;;25.59;38.79
61359;BME280;47228;46.762;23.598;2023-06-26T12:59:55;97022.47;;;25.59;39.46
61359;BME280;47228;46.762;23.598;2023-06-26T13:02:23;97018.66;;;25.59;40.22
61359;BME280;47228;46.762;23.598;2023-06-26T13:04:54;97015.66;;;25.61;40.55
61359;BME280;47228;46.762;23.598;2023-06-26T13:07:22;97015.02;;;25.63;40.05
61359;BME280;47228;46.762;23.598;2023-06-26T13:09:53;97016.60;;;25.69;38.80
61359;BME280;47228;46.762;23.598;2023-06-26T13:12:21;97018.78;;;25.75;39.03
61359;BME280;47228;46.762;23.598;2023-06-26T13:14:49;97015.86;;;25.84;38.60
61359;BME280;47228;46.762;23.598;2023-06-26T13:17:17;97012.41;;;25.91;39.12
61359;BME280;47228;46.762;23.598;2023-06-26T13:19:46;97012.73;;;26.01;39.10